Terminal Aerodrome Forecast
Issued by NWS Shreveport, LA

Home | Current Version | Previous Version | Text Only | Print | Product List | Glossary On
Versions: 1 2 3 4 5 6 7 8 9 10 11 12 13
000
FTUS44 KSHV 301100
TAFTXK
TAF
KTXK 301133Z 3012/3112 16005KT P6SM OVC150
     FM301500 15006KT P6SM OVC100
     FM301700 11005KT P6SM -RA SCT040 OVC100
     FM310100 09005KT P6SM OVC080
      TEMPO 3109/3112 5SM -TSRA BR OVC050CB=

USA.gov is the U.S. government's official web portal to all federal, state and local government web resources and services.